General Aviation Weather

Text Reports

Enter one or more of the following location identifiers separated by a space:

Zip Code, Four-Character ICAO or Three-Character IATA airport codes.

METAR - Aviation Routine Weather Report
KTKI - McKinney, Texas
Updated at 8:06 AM GMT on May 23, 2015 (3:06 AM CDT):
SPECI KTKI 230806Z AUTO 13006KT 10SM OVC017 21/18 A3011 RMK AO2 T02060183 $
TAF - Terminal Area Forecast
KTKI - McKinney, Texas
Updated at 8:06 AM GMT on May 23, 2015 (3:06 AM CDT):
No TAF is currently available for this location.
Decoded:
No decoded TAF is available.
PIREP - Pilot Weather Report
KTKI - McKinney, Texas
Updated at 8:06 AM GMT on May 23, 2015 (3:06 AM CDT):
No PIREP is currently available for this location.
AIRMET - Airmens Meteorological Information
KTKI - McKinney, Texas
Updated at 8:06 AM GMT on May 23, 2015 (3:06 AM CDT):
No AIRMET is currently available for this location.
SIGMET - Significant Meteorological Information
KTKI - McKinney, Texas
Updated at 8:06 AM GMT on May 23, 2015 (3:06 AM CDT):
No SIGMET is currently available for this location.
NOTAM - Notice to Airmen
KTKI - McKinney, Texas
Updated at 8:06 AM GMT on May 23, 2015 (3:06 AM CDT):
No NOTAM is currently available for this location.
Forecast Area
KTKI - McKinney, Texas
Updated at 8:06 AM GMT on May 23, 2015 (3:06 AM CDT):
No NOTAM is currently available for this location.
Aviation Weather Maps